Terminal Aerodrome Forecast
Issued by NWS Charleston, WV

Home | Current Version | Previous Version | Text Only | Print | Product List | Glossary On
Versions: 1 2 3 4 5 6 7 8 9 10 11 12 13 14 15 16 17 18 19 20 21 22 23 24 25 26 27 28 29 30 31 32 33
000
FTUS41 KRLX 251700
TAFEKN
TAF
KEKN 251739Z 2518/2618 25010G17KT P6SM BKN080
     FM260100 26008KT P6SM BKN020
     FM260800 29008KT P6SM SKC
     FM261600 29011G18KT P6SM FEW040=

USA.gov is the U.S. government's official web portal to all federal, state and local government web resources and services.